Melvin L King — WUT9921 — position and weather

sailwx.info

Track history (hours):
 
Tides and Currents Weather Stations Pressure Air Temp Water Temp Dewpoint Dewpoint Depression Visibility Wind Speed Wind Dir Waves Ship Positions

Melvin L King

Owner: YAZOO RIVER TOWING INC, VICKSBURG, MS. More information available from US FCC via Universal Licensing System and Coast Guard Vessel Documentation Center.

Last reported at 2018-Feb-22 02:30 UTC. Time now 2018-Feb-22 02:50 UTC.
Position N 32°23' W 090°54'.

Length 21 m; draft 2.5 m.

Type: Tow > 200 m length. MMSI: 367005760.

Date/timePositionNaut miles runAvg speedWind from/ knotsBaromVisibWave heightAir tempDewpointWater temp
2018-Feb-22 02:30N 32°23' W 090°54'0 0.0
2018-Feb-22 02:00N 32°23' W 090°54'0 0.0
2018-Feb-22 01:30N 32°23' W 090°54'0 0.0
2018-Feb-22 01:00N 32°23' W 090°54'0 0.0
2018-Feb-22 00:30N 32°23' W 090°54'1 2.4
2018-Feb-22 00:00N 32°23' W 090°53'0 0.0
2018-Feb-21 23:29N 32°23' W 090°53'0 0.0
2018-Feb-21 23:00N 32°23' W 090°53'1 2.4
2018-Feb-21 22:30N 32°23' W 090°54'0 0.0
2018-Feb-21 22:00N 32°23' W 090°54'0 0.0
2018-Feb-21 21:30N 32°23' W 090°54'0 0.0
2018-Feb-21 21:00N 32°23' W 090°54'0 0.0
2018-Feb-21 20:30N 32°23' W 090°54'0 0.0
2018-Feb-21 20:00N 32°23' W 090°54'0 0.0
2018-Feb-21 19:30N 32°23' W 090°54'0 0.0
2018-Feb-21 19:00N 32°23' W 090°54'0 0.0
2018-Feb-21 18:30N 32°23' W 090°54'0 0.0
2018-Feb-21 18:00N 32°23' W 090°54'0 0.0
2018-Feb-21 17:30N 32°23' W 090°54'0 0.0
2018-Feb-21 17:00N 32°23' W 090°54'0 0.0
2018-Feb-21 16:30N 32°23' W 090°54'1 2.4
2018-Feb-21 16:00N 32°23' W 090°53'1 2.2
2018-Feb-21 15:30N 32°23' W 090°54'1 1.9
2018-Feb-21 15:00N 32°22' W 090°53'0 0.0
2018-Feb-21 14:30N 32°22' W 090°53'0 0.0
2018-Feb-21 14:00N 32°22' W 090°53'0 0.0
2018-Feb-21 13:30N 32°22' W 090°53'1 1.2
2018-Feb-21 13:00N 32°23' W 090°52'1 1.3
2018-Feb-21 12:30N 32°22' W 090°53'0 0.0
2018-Feb-21 12:00N 32°22' W 090°53'0 0.1
2018-Feb-21 11:29N 32°22' W 090°53'0 0.3
2018-Feb-21 11:00N 32°22' W 090°53'1 1.9
2018-Feb-21 10:30N 32°21' W 090°53'1 2.2
2018-Feb-21 10:00N 32°20' W 090°54'1 2.7
2018-Feb-21 09:30N 32°19' W 090°54'1 2.9
2018-Feb-21 09:00N 32°18' W 090°55'1 1.0
2018-Feb-21 08:30N 32°18' W 090°56'0 0.0
2018-Feb-21 08:00N 32°18' W 090°56'0 0.7
2018-Feb-21 07:30N 32°18' W 090°56'1 1.1
2018-Feb-21 07:00N 32°17' W 090°57'1 2.9
2018-Feb-21 06:30N 32°16' W 090°58'2 3.7
2018-Feb-21 06:00N 32°14' W 090°59'2 3.7
2018-Feb-21 05:30N 32°13' W 090°59'2 3.5
2018-Feb-21 05:00N 32°11' W 090°60'2 3.2
2018-Feb-21 04:30N 32°09' W 091°00'2 3.6
2018-Feb-21 04:00N 32°08' W 091°01'2 3.3
2018-Feb-21 03:30N 32°07' W 091°03'3 4.1
2018-Feb-21 02:43N 32°08' W 091°06'1 3.6
2018-Feb-21 02:30N 32°07' W 091°06'5 1.5
2018-Feb-20 23:19N 32°03' W 091°04'4 0.1
2018-Feb-19 10:58N 32°06' W 091°06'2 5.0
2018-Feb-19 10:30N 32°08' W 091°04'4 7.0
2018-Feb-19 10:00N 32°09' W 091°00'5 9.5
2018-Feb-19 09:30N 32°13' W 090°59'4 9.0
2018-Feb-19 09:00N 32°17' W 090°56'4 8.2
2018-Feb-19 08:30N 32°21' W 090°54'2 3.8
2018-Feb-19 08:00N 32°22' W 090°53'1 1.8
2018-Feb-19 07:30N 32°23' W 090°53'0 0.9
2018-Feb-19 07:00N 32°23' W 090°53'0 0.0
2018-Feb-19 06:30N 32°23' W 090°53'0 0.0
2018-Feb-19 06:00N 32°23' W 090°53'0 0.1
2018-Feb-19 05:30N 32°23' W 090°53'0 0.0
2018-Feb-19 04:59N 32°23' W 090°53'0 0.1
2018-Feb-19 04:30N 32°23' W 090°53'0 0.1
2018-Feb-19 04:00N 32°23' W 090°53'0 0.7
2018-Feb-19 03:30N 32°23' W 090°54'0 0.0
2018-Feb-19 03:00N 32°23' W 090°54'0 0.1
2018-Feb-19 02:30N 32°23' W 090°54'0 0.0
2018-Feb-19 02:00N 32°23' W 090°54'0 0.0
2018-Feb-19 01:30N 32°23' W 090°54'0 0.0
2018-Feb-19 01:00N 32°23' W 090°54'0 0.0
2018-Feb-19 00:30N 32°23' W 090°54'0 0.0
2018-Feb-19 00:00N 32°23' W 090°54'0 0.0
2018-Feb-18 23:30N 32°23' W 090°54'0 0.0
2018-Feb-18 22:59N 32°23' W 090°54'1 2.0
2018-Feb-18 22:29N 32°23' W 090°53'0 0.0
2018-Feb-18 21:59N 32°23' W 090°53'0 0.0
2018-Feb-18 21:30N 32°23' W 090°53'0 0.0
2018-Feb-18 20:59N 32°23' W 090°53'0 0.0
2018-Feb-18 20:30N 32°23' W 090°53'0 0.0
2018-Feb-18 20:00N 32°23' W 090°53'0 0.0
2018-Feb-18 19:28N 32°23' W 090°53'0 0.0
2018-Feb-18 19:00N 32°23' W 090°53'0 0.0
2018-Feb-18 18:30N 32°23' W 090°53'0 0.3
2018-Feb-18 18:00N 32°23' W 090°53'0 0.0
2018-Feb-18 17:30N 32°23' W 090°53'0 0.0
2018-Feb-18 17:00N 32°23' W 090°53'0 0.0
2018-Feb-18 16:30N 32°23' W 090°53'0 0.0
2018-Feb-18 16:00N 32°23' W 090°53'0 0.0
2018-Feb-18 15:30N 32°23' W 090°53'0 0.0
2018-Feb-18 15:00N 32°23' W 090°53'0 0.0
2018-Feb-18 14:30N 32°23' W 090°53'1 1.7
2018-Feb-18 14:00N 32°23' W 090°54'0 0.8
2018-Feb-18 13:30N 32°23' W 090°54'0 0.0
2018-Feb-18 13:00N 32°23' W 090°54'0 0.0
2018-Feb-18 12:30N 32°23' W 090°54'0 0.0
2018-Feb-18 12:00N 32°23' W 090°54'0 0.0
2018-Feb-18 11:30N 32°23' W 090°54'0 0.0
2018-Feb-18 11:00N 32°23' W 090°54'0 0.0
2018-Feb-18 10:30N 32°23' W 090°54'0 0.0
2018-Feb-18 10:00N 32°23' W 090°54'0 0.0
2018-Feb-18 09:30N 32°23' W 090°54'0 0.0
2018-Feb-18 09:00N 32°23' W 090°54'0 0.0
2018-Feb-18 08:30N 32°23' W 090°54'0 0.0
2018-Feb-18 08:00N 32°23' W 090°54'0 0.0
2018-Feb-18 07:30N 32°23' W 090°54'0 0.1
2018-Feb-18 07:00N 32°23' W 090°54'0 0.1
2018-Feb-18 06:30N 32°23' W 090°54'0 0.2
2018-Feb-18 06:00N 32°23' W 090°54'0 0.0
2018-Feb-18 05:30N 32°23' W 090°54'0 0.0
2018-Feb-18 05:00N 32°23' W 090°54'0 0.0
2018-Feb-18 04:30N 32°23' W 090°54'0 0.0
2018-Feb-18 04:00N 32°23' W 090°54'0 0.1
2018-Feb-18 03:30N 32°23' W 090°54'1 1.9
2018-Feb-18 03:00N 32°23' W 090°53'0 0.1
2018-Feb-18 02:30N 32°23' W 090°53'0 0.8
2018-Feb-18 02:00N 32°23' W 090°53'1 1.7
2018-Feb-18 01:30N 32°23' W 090°52'0 0.0
2018-Feb-18 01:00N 32°23' W 090°52'0 0.0
2018-Feb-18 00:30N 32°23' W 090°52'1 2.6
2018-Feb-17 23:59N 32°21' W 090°53'2 4.0
2018-Feb-17 23:30N 32°20' W 090°54'2 3.6
2018-Feb-17 23:00N 32°18' W 090°55'2 3.0
2018-Feb-17 22:30N 32°17' W 090°56'1 3.0
2018-Feb-17 22:00N 32°16' W 090°58'2 3.2
2018-Feb-17 21:30N 32°15' W 090°59'1 3.0
2018-Feb-17 21:00N 32°13' W 090°59'1 2.7
2018-Feb-17 20:30N 32°12' W 090°59'1 3.0
2018-Feb-17 20:00N 32°11' W 090°60'2 3.3
2018-Feb-17 19:30N 32°09' W 091°00'1 2.9
2018-Feb-17 19:00N 32°08' W 091°01'2 3.1
2018-Feb-17 18:30N 32°07' W 091°03'2 2.8
2018-Feb-17 17:57N 32°08' W 091°05'1 3.1
2018-Feb-17 17:30N 32°08' W 091°06'2 3.0
2018-Feb-17 17:00N 32°06' W 091°06'4 2.7
2018-Feb-17 15:42N 32°04' W 091°04'1 3.6
2018-Feb-17 15:29N 32°03' W 091°04'2 4.2
2018-Feb-17 14:55N 32°01' W 091°05'  
2018-Feb-14 08:40N 29°50' W 091°59'1 3.0
2018-Feb-14 08:30N 29°50' W 091°59'3 5.7
2018-Feb-14 08:00N 29°49' W 092°02'3 5.7
2018-Feb-14 07:30N 29°48' W 092°06'2 4.5
2018-Feb-14 07:00N 29°47' W 092°08'2 4.8
2018-Feb-14 06:30N 29°47' W 092°11'2 4.5
2018-Feb-14 06:00N 29°47' W 092°13'3 5.2
2018-Feb-14 05:30N 29°48' W 092°16'2 3.7
2018-Feb-14 04:59N 29°50' W 092°18'2 4.1
2018-Feb-14 04:30N 29°50' W 092°20'42 4.5
2018-Feb-13 19:14N 29°56' W 093°07'1 5.3
2018-Feb-13 19:00N 29°56' W 093°09'2 4.7
2018-Feb-13 18:30N 29°57' W 093°11'3 5.2
2018-Feb-13 17:59N 29°59' W 093°13'2 4.7
2018-Feb-13 17:30N 30°01' W 093°14'0 0.8
2018-Feb-13 17:00N 30°02' W 093°14'0 0.0
2018-Feb-13 16:30N 30°02' W 093°14'0 0.4
2018-Feb-13 15:59N 30°02' W 093°15'2 4.1
2018-Feb-13 15:30N 30°03' W 093°16'2 3.1
2018-Feb-13 15:00N 30°05' W 093°17'1 2.4
2018-Feb-13 14:30N 30°05' W 093°18'1 1.1
2018-Feb-13 14:00N 30°06' W 093°18'0 0.0
2018-Feb-13 13:27N 30°06' W 093°18'0 0.1
2018-Feb-13 13:00N 30°06' W 093°18'0 0.1
2018-Feb-13 12:30N 30°06' W 093°18'1 2.4
2018-Feb-13 12:00N 30°05' W 093°19'3 4.6
2018-Feb-13 11:26N 30°04' W 093°22'1 3.1
2018-Feb-13 11:00N 30°04' W 093°23'1 1.9
2018-Feb-13 10:30N 30°04' W 093°24'1 1.0
2018-Feb-13 10:00N 30°04' W 093°25'2 4.5
2018-Feb-13 09:30N 30°04' W 093°27'2 4.2
2018-Feb-13 08:59N 30°04' W 093°30'2 3.4
2018-Feb-13 08:30N 30°04' W 093°32'3 5.0
2018-Feb-13 07:57N 30°04' W 093°35'3 5.3
2018-Feb-13 07:23N 30°04' W 093°39'2 5.4
2018-Feb-13 07:00N 30°04' W 093°41'2 5.0
2018-Feb-13 06:30N 30°03' W 093°44'1 2.0
2018-Feb-13 06:00N 30°02' W 093°44'3 5.3
2018-Feb-13 05:30N 29°60' W 093°46'3 5.5
2018-Feb-13 05:00N 29°59' W 093°49'3 5.8
2018-Feb-13 04:30N 29°57' W 093°52'3 6.6
2018-Feb-13 04:00N 29°54' W 093°54'3 6.8
2018-Feb-13 03:30N 29°52' W 093°56'3 5.6
2018-Feb-13 03:00N 29°49' W 093°58'3 5.3
2018-Feb-13 02:30N 29°48' W 094°01'3 5.3
2018-Feb-13 02:00N 29°46' W 094°03'3 5.3
2018-Feb-13 01:30N 29°44' W 094°05'3 5.1
2018-Feb-13 01:00N 29°43' W 094°08'3 5.1
2018-Feb-13 00:30N 29°41' W 094°10'2 5.0
2018-Feb-13 00:00N 29°41' W 094°13'3 5.0
2018-Feb-12 23:29N 29°39' W 094°15'2 4.9
2018-Feb-12 23:00N 29°38' W 094°18'  
Track history (hours):
 
Tides and Currents Weather Stations Pressure Air Temp Water Temp Dewpoint Dewpoint Depression Visibility Wind Speed Wind Dir Waves Ship Positions

Melvin L King

Owner: YAZOO RIVER TOWING INC, VICKSBURG, MS. More information available from US FCC via Universal Licensing System and Coast Guard Vessel Documentation Center.

Last reported at 2018-Feb-22 02:30 UTC. Time now 2018-Feb-22 02:50 UTC.
Position N 32°23' W 090°54'.

Length 21 m; draft 2.5 m.

Type: Tow > 200 m length. MMSI: 367005760.

Date/timePositionNaut miles runAvg speedWind from/ knotsBaromVisibWave heightAir tempDewpointWater temp
2018-Feb-22 02:30N 32°23' W 090°54'0 0.0
2018-Feb-22 02:00N 32°23' W 090°54'0 0.0
2018-Feb-22 01:30N 32°23' W 090°54'0 0.0
2018-Feb-22 01:00N 32°23' W 090°54'0 0.0
2018-Feb-22 00:30N 32°23' W 090°54'1 2.4
2018-Feb-22 00:00N 32°23' W 090°53'0 0.0
2018-Feb-21 23:29N 32°23' W 090°53'0 0.0
2018-Feb-21 23:00N 32°23' W 090°53'1 2.4
2018-Feb-21 22:30N 32°23' W 090°54'0 0.0
2018-Feb-21 22:00N 32°23' W 090°54'0 0.0
2018-Feb-21 21:30N 32°23' W 090°54'0 0.0
2018-Feb-21 21:00N 32°23' W 090°54'0 0.0
2018-Feb-21 20:30N 32°23' W 090°54'0 0.0
2018-Feb-21 20:00N 32°23' W 090°54'0 0.0
2018-Feb-21 19:30N 32°23' W 090°54'0 0.0
2018-Feb-21 19:00N 32°23' W 090°54'0 0.0
2018-Feb-21 18:30N 32°23' W 090°54'0 0.0
2018-Feb-21 18:00N 32°23' W 090°54'0 0.0
2018-Feb-21 17:30N 32°23' W 090°54'0 0.0
2018-Feb-21 17:00N 32°23' W 090°54'0 0.0
2018-Feb-21 16:30N 32°23' W 090°54'1 2.4
2018-Feb-21 16:00N 32°23' W 090°53'1 2.2
2018-Feb-21 15:30N 32°23' W 090°54'1 1.9
2018-Feb-21 15:00N 32°22' W 090°53'0 0.0
2018-Feb-21 14:30N 32°22' W 090°53'0 0.0
2018-Feb-21 14:00N 32°22' W 090°53'0 0.0
2018-Feb-21 13:30N 32°22' W 090°53'1 1.2
2018-Feb-21 13:00N 32°23' W 090°52'1 1.3
2018-Feb-21 12:30N 32°22' W 090°53'0 0.0
2018-Feb-21 12:00N 32°22' W 090°53'0 0.1
2018-Feb-21 11:29N 32°22' W 090°53'0 0.3
2018-Feb-21 11:00N 32°22' W 090°53'1 1.9
2018-Feb-21 10:30N 32°21' W 090°53'1 2.2
2018-Feb-21 10:00N 32°20' W 090°54'1 2.7
2018-Feb-21 09:30N 32°19' W 090°54'1 2.9
2018-Feb-21 09:00N 32°18' W 090°55'1 1.0
2018-Feb-21 08:30N 32°18' W 090°56'0 0.0
2018-Feb-21 08:00N 32°18' W 090°56'0 0.7
2018-Feb-21 07:30N 32°18' W 090°56'1 1.1
2018-Feb-21 07:00N 32°17' W 090°57'1 2.9
2018-Feb-21 06:30N 32°16' W 090°58'2 3.7
2018-Feb-21 06:00N 32°14' W 090°59'2 3.7
2018-Feb-21 05:30N 32°13' W 090°59'2 3.5
2018-Feb-21 05:00N 32°11' W 090°60'2 3.2
2018-Feb-21 04:30N 32°09' W 091°00'2 3.6
2018-Feb-21 04:00N 32°08' W 091°01'2 3.3
2018-Feb-21 03:30N 32°07' W 091°03'3 4.1
2018-Feb-21 02:43N 32°08' W 091°06'1 3.6
2018-Feb-21 02:30N 32°07' W 091°06'5 1.5
2018-Feb-20 23:19N 32°03' W 091°04'4 0.1
2018-Feb-19 10:58N 32°06' W 091°06'2 5.0
2018-Feb-19 10:30N 32°08' W 091°04'4 7.0
2018-Feb-19 10:00N 32°09' W 091°00'5 9.5
2018-Feb-19 09:30N 32°13' W 090°59'4 9.0
2018-Feb-19 09:00N 32°17' W 090°56'4 8.2
2018-Feb-19 08:30N 32°21' W 090°54'2 3.8
2018-Feb-19 08:00N 32°22' W 090°53'1 1.8
2018-Feb-19 07:30N 32°23' W 090°53'0 0.9
2018-Feb-19 07:00N 32°23' W 090°53'0 0.0
2018-Feb-19 06:30N 32°23' W 090°53'0 0.0
2018-Feb-19 06:00N 32°23' W 090°53'0 0.1
2018-Feb-19 05:30N 32°23' W 090°53'0 0.0
2018-Feb-19 04:59N 32°23' W 090°53'0 0.1
2018-Feb-19 04:30N 32°23' W 090°53'0 0.1
2018-Feb-19 04:00N 32°23' W 090°53'0 0.7
2018-Feb-19 03:30N 32°23' W 090°54'0 0.0
2018-Feb-19 03:00N 32°23' W 090°54'0 0.1
2018-Feb-19 02:30N 32°23' W 090°54'0 0.0
2018-Feb-19 02:00N 32°23' W 090°54'0 0.0
2018-Feb-19 01:30N 32°23' W 090°54'0 0.0
2018-Feb-19 01:00N 32°23' W 090°54'0 0.0
2018-Feb-19 00:30N 32°23' W 090°54'0 0.0
2018-Feb-19 00:00N 32°23' W 090°54'0 0.0
2018-Feb-18 23:30N 32°23' W 090°54'0 0.0
2018-Feb-18 22:59N 32°23' W 090°54'1 2.0
2018-Feb-18 22:29N 32°23' W 090°53'0 0.0
2018-Feb-18 21:59N 32°23' W 090°53'0 0.0
2018-Feb-18 21:30N 32°23' W 090°53'0 0.0
2018-Feb-18 20:59N 32°23' W 090°53'0 0.0
2018-Feb-18 20:30N 32°23' W 090°53'0 0.0
2018-Feb-18 20:00N 32°23' W 090°53'0 0.0
2018-Feb-18 19:28N 32°23' W 090°53'0 0.0
2018-Feb-18 19:00N 32°23' W 090°53'0 0.0
2018-Feb-18 18:30N 32°23' W 090°53'0 0.3
2018-Feb-18 18:00N 32°23' W 090°53'0 0.0
2018-Feb-18 17:30N 32°23' W 090°53'0 0.0
2018-Feb-18 17:00N 32°23' W 090°53'0 0.0
2018-Feb-18 16:30N 32°23' W 090°53'0 0.0
2018-Feb-18 16:00N 32°23' W 090°53'0 0.0
2018-Feb-18 15:30N 32°23' W 090°53'0 0.0
2018-Feb-18 15:00N 32°23' W 090°53'0 0.0
2018-Feb-18 14:30N 32°23' W 090°53'1 1.7
2018-Feb-18 14:00N 32°23' W 090°54'0 0.8
2018-Feb-18 13:30N 32°23' W 090°54'0 0.0
2018-Feb-18 13:00N 32°23' W 090°54'0 0.0
2018-Feb-18 12:30N 32°23' W 090°54'0 0.0
2018-Feb-18 12:00N 32°23' W 090°54'0 0.0
2018-Feb-18 11:30N 32°23' W 090°54'0 0.0
2018-Feb-18 11:00N 32°23' W 090°54'0 0.0
2018-Feb-18 10:30N 32°23' W 090°54'0 0.0
2018-Feb-18 10:00N 32°23' W 090°54'0 0.0
2018-Feb-18 09:30N 32°23' W 090°54'0 0.0
2018-Feb-18 09:00N 32°23' W 090°54'0 0.0
2018-Feb-18 08:30N 32°23' W 090°54'0 0.0
2018-Feb-18 08:00N 32°23' W 090°54'0 0.0
2018-Feb-18 07:30N 32°23' W 090°54'0 0.1
2018-Feb-18 07:00N 32°23' W 090°54'0 0.1
2018-Feb-18 06:30N 32°23' W 090°54'0 0.2
2018-Feb-18 06:00N 32°23' W 090°54'0 0.0
2018-Feb-18 05:30N 32°23' W 090°54'0 0.0
2018-Feb-18 05:00N 32°23' W 090°54'0 0.0
2018-Feb-18 04:30N 32°23' W 090°54'0 0.0
2018-Feb-18 04:00N 32°23' W 090°54'0 0.1
2018-Feb-18 03:30N 32°23' W 090°54'1 1.9
2018-Feb-18 03:00N 32°23' W 090°53'0 0.1
2018-Feb-18 02:30N 32°23' W 090°53'0 0.8
2018-Feb-18 02:00N 32°23' W 090°53'1 1.7
2018-Feb-18 01:30N 32°23' W 090°52'0 0.0
2018-Feb-18 01:00N 32°23' W 090°52'0 0.0
2018-Feb-18 00:30N 32°23' W 090°52'1 2.6
2018-Feb-17 23:59N 32°21' W 090°53'2 4.0
2018-Feb-17 23:30N 32°20' W 090°54'2 3.6
2018-Feb-17 23:00N 32°18' W 090°55'2 3.0
2018-Feb-17 22:30N 32°17' W 090°56'1 3.0
2018-Feb-17 22:00N 32°16' W 090°58'2 3.2
2018-Feb-17 21:30N 32°15' W 090°59'1 3.0
2018-Feb-17 21:00N 32°13' W 090°59'1 2.7
2018-Feb-17 20:30N 32°12' W 090°59'1 3.0
2018-Feb-17 20:00N 32°11' W 090°60'2 3.3
2018-Feb-17 19:30N 32°09' W 091°00'1 2.9
2018-Feb-17 19:00N 32°08' W 091°01'2 3.1
2018-Feb-17 18:30N 32°07' W 091°03'2 2.8
2018-Feb-17 17:57N 32°08' W 091°05'1 3.1
2018-Feb-17 17:30N 32°08' W 091°06'2 3.0
2018-Feb-17 17:00N 32°06' W 091°06'4 2.7
2018-Feb-17 15:42N 32°04' W 091°04'1 3.6
2018-Feb-17 15:29N 32°03' W 091°04'2 4.2
2018-Feb-17 14:55N 32°01' W 091°05'  
2018-Feb-14 08:40N 29°50' W 091°59'1 3.0
2018-Feb-14 08:30N 29°50' W 091°59'3 5.7
2018-Feb-14 08:00N 29°49' W 092°02'3 5.7
2018-Feb-14 07:30N 29°48' W 092°06'2 4.5
2018-Feb-14 07:00N 29°47' W 092°08'2 4.8
2018-Feb-14 06:30N 29°47' W 092°11'2 4.5
2018-Feb-14 06:00N 29°47' W 092°13'3 5.2
2018-Feb-14 05:30N 29°48' W 092°16'2 3.7
2018-Feb-14 04:59N 29°50' W 092°18'2 4.1
2018-Feb-14 04:30N 29°50' W 092°20'42 4.5
2018-Feb-13 19:14N 29°56' W 093°07'1 5.3
2018-Feb-13 19:00N 29°56' W 093°09'2 4.7
2018-Feb-13 18:30N 29°57' W 093°11'3 5.2
2018-Feb-13 17:59N 29°59' W 093°13'2 4.7
2018-Feb-13 17:30N 30°01' W 093°14'0 0.8
2018-Feb-13 17:00N 30°02' W 093°14'0 0.0
2018-Feb-13 16:30N 30°02' W 093°14'0 0.4
2018-Feb-13 15:59N 30°02' W 093°15'2 4.1
2018-Feb-13 15:30N 30°03' W 093°16'2 3.1
2018-Feb-13 15:00N 30°05' W 093°17'1 2.4
2018-Feb-13 14:30N 30°05' W 093°18'1 1.1
2018-Feb-13 14:00N 30°06' W 093°18'0 0.0
2018-Feb-13 13:27N 30°06' W 093°18'0 0.1
2018-Feb-13 13:00N 30°06' W 093°18'0 0.1
2018-Feb-13 12:30N 30°06' W 093°18'1 2.4
2018-Feb-13 12:00N 30°05' W 093°19'3 4.6
2018-Feb-13 11:26N 30°04' W 093°22'1 3.1
2018-Feb-13 11:00N 30°04' W 093°23'1 1.9
2018-Feb-13 10:30N 30°04' W 093°24'1 1.0
2018-Feb-13 10:00N 30°04' W 093°25'2 4.5
2018-Feb-13 09:30N 30°04' W 093°27'2 4.2
2018-Feb-13 08:59N 30°04' W 093°30'2 3.4
2018-Feb-13 08:30N 30°04' W 093°32'3 5.0
2018-Feb-13 07:57N 30°04' W 093°35'3 5.3
2018-Feb-13 07:23N 30°04' W 093°39'2 5.4
2018-Feb-13 07:00N 30°04' W 093°41'2 5.0
2018-Feb-13 06:30N 30°03' W 093°44'1 2.0
2018-Feb-13 06:00N 30°02' W 093°44'3 5.3
2018-Feb-13 05:30N 29°60' W 093°46'3 5.5
2018-Feb-13 05:00N 29°59' W 093°49'3 5.8
2018-Feb-13 04:30N 29°57' W 093°52'3 6.6
2018-Feb-13 04:00N 29°54' W 093°54'3 6.8
2018-Feb-13 03:30N 29°52' W 093°56'3 5.6
2018-Feb-13 03:00N 29°49' W 093°58'3 5.3
2018-Feb-13 02:30N 29°48' W 094°01'3 5.3
2018-Feb-13 02:00N 29°46' W 094°03'3 5.3
2018-Feb-13 01:30N 29°44' W 094°05'3 5.1
2018-Feb-13 01:00N 29°43' W 094°08'3 5.1
2018-Feb-13 00:30N 29°41' W 094°10'2 5.0
2018-Feb-13 00:00N 29°41' W 094°13'3 5.0
2018-Feb-12 23:29N 29°39' W 094°15'2 4.9
2018-Feb-12 23:00N 29°38' W 094°18'  

Dump ship's entire track history